createdAt,value
2023-02-05T00:00:56.597Z,103727.63
2023-02-05T00:03:25.729Z,103723.34
2023-02-05T00:05:56.158Z,103713.72
2023-02-05T00:08:27.435Z,103716.28
2023-02-05T00:10:56.528Z,103716.25
2023-02-05T00:13:25.602Z,103714.72
2023-02-05T00:15:54.697Z,103702.75
2023-02-05T00:18:23.749Z,103702.63
2023-02-05T00:20:52.794Z,103690.63
2023-02-05T00:23:23.197Z,103690.72
2023-02-05T00:25:52.225Z,103683.88
2023-02-05T00:28:21.299Z,103676.13
2023-02-05T00:30:50.549Z,103668.31
2023-02-05T00:33:19.703Z,103664.81
2023-02-05T00:35:48.848Z,103653.00
2023-02-05T00:38:17.971Z,103652.88
2023-02-05T00:40:48.351Z,103637.47
2023-02-05T00:43:17.459Z,103625.41
2023-02-05T00:45:46.668Z,103627.16
2023-02-05T00:48:15.785Z,103630.69
2023-02-05T00:50:44.967Z,103631.44
2023-02-05T00:53:14.043Z,103646.13
2023-02-05T00:55:43.129Z,103634.97
2023-02-05T00:58:13.904Z,103634.09
2023-02-05T01:00:43.019Z,103620.41
2023-02-05T01:03:12.689Z,103616.94
2023-02-05T01:05:41.855Z,103612.66
2023-02-05T01:08:13.008Z,103608.31
2023-02-05T01:10:47.148Z,103613.44
2023-02-05T01:13:18.875Z,103616.84
2023-02-05T01:15:48.143Z,103606.56
2023-02-05T01:18:17.489Z,103591.97
2023-02-05T01:20:46.581Z,103578.22
2023-02-05T01:23:15.629Z,103575.72
2023-02-05T01:25:44.882Z,103571.38
2023-02-05T01:28:14.199Z,103564.47
2023-02-05T01:30:49.643Z,103569.69
2023-02-05T01:33:19.414Z,103560.34
2023-02-05T01:35:49.467Z,103558.44
2023-02-05T01:38:18.503Z,103555.09
2023-02-05T01:40:47.539Z,103557.69
2023-02-05T01:43:18.289Z,103548.28
2023-02-05T01:46:18.527Z,103555.16
2023-02-05T01:48:52.623Z,103541.41
2023-02-05T01:51:22.658Z,103543.06
2023-02-05T01:53:52.758Z,103560.22
2023-02-05T01:56:27.080Z,103553.41
2023-02-05T01:59:01.559Z,103559.41
2023-02-05T02:01:33.126Z,103556.81
2023-02-05T02:04:05.894Z,103545.63
2023-02-05T02:06:36.312Z,103537.97
2023-02-05T02:09:07.689Z,103539.72
2023-02-05T02:11:40.043Z,103536.25
2023-02-05T02:14:12.107Z,103549.94
2023-02-05T02:16:42.624Z,103554.31
2023-02-05T02:19:19.934Z,103562.94
2023-02-05T02:22:33.054Z,103561.25
2023-02-05T02:25:34.590Z,103562.94
2023-02-05T02:28:11.318Z,103567.31
2023-02-05T02:30:44.945Z,103550.09
2023-02-05T02:33:19.754Z,103551.00
2023-02-05T02:35:54.640Z,103555.31
2023-02-05T02:38:31.188Z,103540.72
2023-02-05T02:41:06.589Z,103543.31
2023-02-05T02:43:46.139Z,103539.88
2023-02-05T02:46:22.017Z,103539.97
2023-02-05T02:48:58.212Z,103547.69
2023-02-05T02:51:30.084Z,103546.88
2023-02-05T02:54:01.586Z,103541.75
2023-02-05T02:56:34.327Z,103548.59
2023-02-05T02:59:08.980Z,103550.31
2023-02-05T03:01:46.915Z,103551.19
2023-02-05T03:04:24.488Z,103541.78
2023-02-05T03:06:56.768Z,103551.25
2023-02-05T03:09:32.472Z,103545.22
2023-02-05T03:12:01.760Z,103552.13
2023-02-05T03:14:32.907Z,103542.72
2023-02-05T03:17:03.725Z,103535.84
2023-02-05T03:19:34.184Z,103524.66
2023-02-05T03:22:05.593Z,103522.97
2023-02-05T03:24:34.929Z,103528.09
2023-02-05T03:27:05.041Z,103516.97
2023-02-05T03:29:44.507Z,103516.91
2023-02-05T03:32:31.802Z,103506.63
2023-02-05T03:35:14.939Z,103505.75
2023-02-05T03:37:57.126Z,103498.84
2023-02-05T03:40:33.435Z,103480.81
2023-02-05T03:43:14.315Z,103478.25
2023-02-05T03:45:54.310Z,103465.41
2023-02-05T03:48:40.480Z,103465.34
2023-02-05T03:51:22.604Z,103470.47
2023-02-05T03:54:04.267Z,103473.91
2023-02-05T03:56:44.395Z,103468.78
2023-02-05T03:59:17.290Z,103449.91
2023-02-05T04:01:48.473Z,103449.84
2023-02-05T04:04:18.206Z,103448.13
2023-02-05T04:06:49.713Z,103455.00
2023-02-05T04:09:19.101Z,103457.59
2023-02-05T04:11:48.321Z,103459.28
2023-02-05T04:14:20.378Z,103466.97
2023-02-05T04:16:50.857Z,103466.13
2023-02-05T04:19:22.365Z,103459.28
2023-02-05T04:21:53.341Z,103455.81
2023-02-05T04:24:23.025Z,103456.72
2023-02-05T04:26:52.336Z,103451.56
2023-02-05T04:29:22.058Z,103455.84
2023-02-05T04:31:55.111Z,103455.81
2023-02-05T04:34:24.177Z,103436.94
2023-02-05T04:36:53.507Z,103433.56
2023-02-05T04:39:24.237Z,103421.53
2023-02-05T04:41:53.290Z,103421.53
2023-02-05T04:44:22.581Z,103413.00
2023-02-05T04:46:51.618Z,103407.84
2023-02-05T04:49:22.099Z,103403.56
2023-02-05T04:51:51.119Z,103395.00
2023-02-05T04:54:20.358Z,103395.03
2023-02-05T04:56:49.400Z,103401.88
2023-02-05T04:59:18.511Z,103399.31
2023-02-05T05:01:47.588Z,103397.63
2023-02-05T05:04:16.641Z,103401.03
2023-02-05T05:06:47.061Z,103403.59
2023-02-05T05:09:16.065Z,103402.78
2023-02-05T05:11:47.213Z,103398.50
2023-02-05T05:14:16.230Z,103399.41
2023-02-05T05:16:45.246Z,103401.09
2023-02-05T05:19:14.381Z,103401.97
2023-02-05T05:21:43.439Z,103396.84
2023-02-05T05:24:13.821Z,103381.41
2023-02-05T05:26:45.060Z,103369.38
2023-02-05T05:29:15.156Z,103371.09
2023-02-05T05:31:44.263Z,103364.25
2023-02-05T05:34:13.348Z,103373.66
2023-02-05T05:36:43.586Z,103379.69
2023-02-05T05:39:31.629Z,103385.75
2023-02-05T05:42:17.997Z,103377.16
2023-02-05T05:44:50.090Z,103369.41
2023-02-05T05:47:19.228Z,103373.75
2023-02-05T05:49:48.400Z,103381.50
2023-02-05T05:52:17.534Z,103378.88
2023-02-05T05:54:47.976Z,103363.41
2023-02-05T05:57:17.013Z,103352.28
2023-02-05T05:59:46.063Z,103351.44
2023-02-05T06:02:15.100Z,103341.97
2023-02-05T06:04:44.189Z,103334.25
2023-02-05T06:07:13.310Z,103322.25
2023-02-05T06:09:42.321Z,103321.38
2023-02-05T06:12:12.746Z,103305.06
2023-02-05T06:14:41.771Z,103303.38
2023-02-05T06:17:10.846Z,103299.06
2023-02-05T06:19:39.893Z,103315.38
2023-02-05T06:22:08.906Z,103297.38
2023-02-05T06:24:38.048Z,103295.66
2023-02-05T06:27:07.057Z,103304.25
2023-02-05T06:29:37.434Z,103315.41
2023-02-05T06:32:06.673Z,103318.84
2023-02-05T06:34:35.788Z,103318.84
2023-02-05T06:37:04.810Z,103320.56
2023-02-05T06:39:33.862Z,103325.75
2023-02-05T06:42:02.928Z,103328.31
2023-02-05T06:44:31.981Z,103328.31
2023-02-05T06:47:02.561Z,103338.63
2023-02-05T06:49:31.596Z,103341.22
2023-02-05T06:52:03.104Z,103349.78
2023-02-05T06:54:33.828Z,103348.94
2023-02-05T06:57:05.396Z,103353.25
2023-02-05T06:59:34.446Z,103345.50
2023-02-05T07:02:04.885Z,103348.09
2023-02-05T07:04:34.008Z,103343.78
2023-02-05T07:07:03.088Z,103337.78
2023-02-05T07:09:32.100Z,103336.94
2023-02-05T07:12:01.227Z,103337.78
2023-02-05T07:14:31.435Z,103336.03
2023-02-05T07:17:00.459Z,103324.06
2023-02-05T07:19:30.941Z,103336.06
2023-02-05T07:22:01.158Z,103336.09
2023-02-05T07:24:30.167Z,103332.66
2023-02-05T07:26:59.296Z,103327.50
2023-02-05T07:29:29.303Z,103336.09
2023-02-05T07:31:58.464Z,103338.66
2023-02-05T07:34:27.553Z,103349.81
2023-02-05T07:36:57.932Z,103350.69
2023-02-05T07:39:27.980Z,103348.13
2023-02-05T07:41:57.118Z,103337.78
2023-02-05T07:44:34.137Z,103340.41
2023-02-05T07:47:03.154Z,103342.97
2023-02-05T07:49:32.200Z,103349.00
2023-02-05T07:52:02.769Z,103348.16
2023-02-05T07:54:32.242Z,103345.59
2023-02-05T07:57:02.587Z,103346.47
2023-02-05T07:59:31.604Z,103344.72
2023-02-05T08:02:00.641Z,103338.69
2023-02-05T08:04:29.791Z,103348.16
2023-02-05T08:06:58.834Z,103349.06
2023-02-05T08:09:29.236Z,103349.03
2023-02-05T08:11:58.373Z,103347.31
2023-02-05T08:14:27.495Z,103350.75
2023-02-05T08:16:56.559Z,103343.88
2023-02-05T08:19:26.348Z,103343.00
2023-02-05T08:21:55.409Z,103333.56
2023-02-05T08:24:24.468Z,103332.72
2023-02-05T08:26:54.931Z,103333.59
2023-02-05T08:29:26.353Z,103327.56
2023-02-05T08:31:55.904Z,103336.16
2023-02-05T08:34:24.967Z,103342.16
2023-02-05T08:36:54.424Z,103347.38
2023-02-05T08:39:26.089Z,103343.03
2023-02-05T08:41:57.190Z,103361.09
2023-02-05T08:44:26.768Z,103359.38
2023-02-05T08:46:55.784Z,103365.41
2023-02-05T08:49:25.043Z,103367.97
2023-02-05T08:51:54.064Z,103366.25
2023-02-05T08:54:23.127Z,103359.38
2023-02-05T08:56:53.047Z,103363.66
2023-02-05T08:59:23.457Z,103361.13
2023-02-05T09:01:52.545Z,103361.13
2023-02-05T09:04:23.340Z,103372.31
2023-02-05T09:06:52.578Z,103377.44
2023-02-05T09:09:21.647Z,103378.28
2023-02-05T09:11:50.923Z,103392.94
2023-02-05T09:14:19.983Z,103389.47
2023-02-05T09:16:50.444Z,103391.22
2023-02-05T09:19:19.548Z,103385.19
2023-02-05T09:21:48.597Z,103382.59
2023-02-05T09:24:17.729Z,103379.19
2023-02-05T09:26:46.744Z,103372.28
2023-02-05T09:29:15.808Z,103373.16
2023-02-05T09:31:45.001Z,103371.44
2023-02-05T09:34:15.940Z,103366.25
2023-02-05T09:36:45.032Z,103376.56
2023-02-05T09:39:34.571Z,103370.53
2023-02-05T09:42:13.384Z,103376.56
2023-02-05T09:44:54.088Z,103375.72
2023-02-05T09:47:31.163Z,103371.38
2023-02-05T09:50:08.686Z,103377.38
2023-02-05T09:52:40.104Z,103377.38
2023-02-05T09:55:18.367Z,103380.75
2023-02-05T09:57:47.656Z,103379.06
2023-02-05T10:00:24.883Z,103385.91
2023-02-05T10:03:02.885Z,103384.97
2023-02-05T10:05:44.441Z,103380.78
2023-02-05T10:08:23.740Z,103392.81
2023-02-05T10:10:56.292Z,103388.38
2023-02-05T10:13:36.478Z,103389.09
2023-02-05T10:16:31.507Z,103391.75
2023-02-05T10:19:25.472Z,103389.34
2023-02-05T10:22:11.959Z,103385.88
2023-02-05T10:24:55.175Z,103381.56
2023-02-05T10:27:27.817Z,103372.06
2023-02-05T10:30:06.433Z,103369.47
2023-02-05T10:32:45.778Z,103371.16
2023-02-05T10:35:25.658Z,103381.50
2023-02-05T10:37:57.950Z,103380.63
2023-02-05T10:40:31.600Z,103393.53
2023-02-05T10:43:12.783Z,103394.31
2023-02-05T10:45:41.858Z,103394.09
2023-02-05T10:48:27.000Z,103408.06
2023-02-05T10:51:01.317Z,103401.91
2023-02-05T10:53:32.928Z,103404.50
2023-02-05T10:56:04.325Z,103413.91
2023-02-05T10:58:44.699Z,103419.88
2023-02-05T11:01:17.380Z,103421.53
2023-02-05T11:03:54.500Z,103423.44
2023-02-05T11:06:26.940Z,103425.22
2023-02-05T11:08:57.737Z,103424.38
2023-02-05T11:11:29.408Z,103421.69
2023-02-05T11:14:06.863Z,103419.13
2023-02-05T11:16:42.984Z,103416.50
2023-02-05T11:19:21.335Z,103404.47
2023-02-05T11:21:55.125Z,103407.06
2023-02-05T11:24:31.545Z,103409.63
2023-02-05T11:27:27.900Z,103415.78
2023-02-05T11:29:59.888Z,103407.94
2023-02-05T11:32:35.921Z,103407.94
2023-02-05T11:35:22.928Z,103413.00
2023-02-05T11:38:08.351Z,103431.03
2023-02-05T11:40:39.640Z,103428.41
2023-02-05T11:43:23.998Z,103427.72
2023-02-05T11:45:54.779Z,103422.47
2023-02-05T11:48:33.214Z,103429.34
2023-02-05T11:51:04.551Z,103431.09
2023-02-05T11:53:34.301Z,103430.34
2023-02-05T11:56:14.360Z,103438.88
2023-02-05T11:58:45.227Z,103432.78
2023-02-05T12:01:25.140Z,103424.84
2023-02-05T12:04:04.610Z,103423.25
2023-02-05T12:06:46.985Z,103431.91
2023-02-05T12:09:21.068Z,103437.03
2023-02-05T12:12:11.187Z,103437.75
2023-02-05T12:14:45.179Z,103426.56
2023-02-05T12:17:30.611Z,103433.47
2023-02-05T12:20:08.964Z,103418.75
2023-02-05T12:23:23.478Z,103419.53
2023-02-05T12:26:10.575Z,103423.03
2023-02-05T12:28:49.183Z,103430.75
2023-02-05T12:31:29.399Z,103432.38
2023-02-05T12:34:24.574Z,103432.69
2023-02-05T12:37:17.195Z,103427.50
2023-02-05T12:39:52.128Z,103421.50
2023-02-05T12:42:31.184Z,103412.69
2023-02-05T12:45:25.725Z,103404.09
2023-02-05T12:48:24.619Z,103395.25
2023-02-05T12:51:06.267Z,103396.91
2023-02-05T12:53:51.921Z,103391.06
2023-02-05T12:56:44.866Z,103396.91
2023-02-05T12:59:19.373Z,103404.66
2023-02-05T13:01:56.596Z,103411.81
2023-02-05T13:04:31.033Z,103416.66
2023-02-05T13:07:08.475Z,103421.06
2023-02-05T13:09:46.402Z,103417.75
2023-02-05T13:12:18.819Z,103423.69
2023-02-05T13:14:58.549Z,103434.97
2023-02-05T13:17:32.056Z,103434.03
2023-02-05T13:20:04.046Z,103439.03
2023-02-05T13:22:54.416Z,103435.41
2023-02-05T13:25:46.916Z,103439.06
2023-02-05T13:28:43.086Z,103440.84
2023-02-05T13:31:22.186Z,103445.16
2023-02-05T13:33:54.741Z,103446.81
2023-02-05T13:37:00.254Z,103445.25
2023-02-05T13:39:48.395Z,103436.66
2023-02-05T13:42:37.128Z,103454.50
2023-02-05T13:45:36.317Z,103463.84
2023-02-05T13:48:39.527Z,103464.66
2023-02-05T13:51:29.172Z,103460.13
2023-02-05T13:54:19.865Z,103457.88
2023-02-05T13:57:05.179Z,103460.25
2023-02-05T13:59:38.614Z,103470.63
2023-02-05T14:02:32.407Z,103468.97
2023-02-05T14:05:03.081Z,103473.47
2023-02-05T14:07:36.346Z,103486.34
2023-02-05T14:10:06.828Z,103494.97
2023-02-05T14:12:37.936Z,103488.16
2023-02-05T14:15:38.680Z,103492.53
2023-02-05T14:18:08.823Z,103489.97
2023-02-05T14:20:40.530Z,103475.38
2023-02-05T14:23:52.955Z,103458.13
2023-02-05T14:26:42.091Z,103463.13
2023-02-05T14:29:41.254Z,103474.28
2023-02-05T14:32:12.962Z,103483.00
2023-02-05T14:34:58.947Z,103482.25
2023-02-05T14:37:36.188Z,103477.97
2023-02-05T14:40:24.301Z,103477.84
2023-02-05T14:43:09.498Z,103486.41
2023-02-05T14:45:47.333Z,103489.00
2023-02-05T14:48:26.321Z,103501.94
2023-02-05T14:51:07.631Z,103510.53
2023-02-05T14:53:39.627Z,103516.63
2023-02-05T14:56:08.920Z,103513.19
2023-02-05T14:58:44.248Z,103520.13
2023-02-05T15:01:44.151Z,103526.22
2023-02-05T15:04:25.803Z,103529.72
2023-02-05T15:06:57.753Z,103512.44
2023-02-05T15:09:39.230Z,103513.41
2023-02-05T15:12:33.744Z,103506.41
2023-02-05T15:15:28.089Z,103519.41
2023-02-05T15:18:07.298Z,103518.56
2023-02-05T15:20:40.422Z,103519.41
2023-02-05T15:23:23.440Z,103507.28
2023-02-05T15:25:56.836Z,103507.31
2023-02-05T15:28:35.180Z,103503.88
2023-02-05T15:31:22.746Z,103500.41
2023-02-05T15:34:00.992Z,103510.78
2023-02-05T15:36:38.424Z,103517.69
2023-02-05T15:39:19.718Z,103514.19
2023-02-05T15:41:49.717Z,103520.31
2023-02-05T15:44:26.955Z,103528.94
2023-02-05T15:46:57.426Z,103535.00
2023-02-05T15:49:33.136Z,103535.81
2023-02-05T15:52:02.998Z,103534.22
2023-02-05T15:54:35.718Z,103528.22
2023-02-05T15:57:07.661Z,103525.63
2023-02-05T15:59:37.126Z,103530.84
2023-02-05T16:02:18.662Z,103541.97
2023-02-05T16:04:57.255Z,103557.47
2023-02-05T16:07:29.538Z,103555.78
2023-02-05T16:10:00.775Z,103567.91
2023-02-05T16:12:31.693Z,103569.63
2023-02-05T16:15:02.745Z,103558.38
2023-02-05T16:17:39.191Z,103564.50
2023-02-05T16:20:21.058Z,103577.41
2023-02-05T16:22:55.526Z,103586.00
2023-02-05T16:25:36.351Z,103592.94
2023-02-05T16:28:12.235Z,103587.78
2023-02-05T16:30:44.623Z,103590.38
2023-02-05T16:33:26.056Z,103595.63
2023-02-05T16:35:58.482Z,103592.19
2023-02-05T16:38:28.296Z,103589.63
2023-02-05T16:41:00.729Z,103587.03
2023-02-05T16:43:37.554Z,103589.66
2023-02-05T16:46:27.057Z,103596.56
2023-02-05T16:48:58.728Z,103598.31
2023-02-05T16:51:54.394Z,103612.97
2023-02-05T16:54:29.106Z,103613.03
2023-02-05T16:57:03.889Z,103613.84
2023-02-05T16:59:36.972Z,103624.25
2023-02-05T17:02:06.923Z,103615.59
2023-02-05T17:04:38.951Z,103632.00
2023-02-05T17:07:21.224Z,103633.69
2023-02-05T17:09:51.452Z,103632.00
2023-02-05T17:12:46.346Z,103631.16
2023-02-05T17:15:45.659Z,103638.06
2023-02-05T17:18:26.974Z,103643.25
2023-02-05T17:21:24.462Z,103638.03
2023-02-05T17:23:56.923Z,103635.47
2023-02-05T17:26:27.246Z,103650.16
2023-02-05T17:28:58.872Z,103650.16
2023-02-05T17:31:29.461Z,103657.91
2023-02-05T17:34:00.180Z,103662.22
2023-02-05T17:36:29.379Z,103669.09
2023-02-05T17:38:59.930Z,103672.56
2023-02-05T17:41:50.627Z,103667.41
2023-02-05T17:44:22.773Z,103658.75
2023-02-05T17:46:54.016Z,103669.97
2023-02-05T17:49:23.214Z,103678.59
2023-02-05T17:51:52.348Z,103688.09
2023-02-05T17:54:25.556Z,103685.53
2023-02-05T17:56:57.407Z,103684.63
2023-02-05T17:59:27.504Z,103680.38
2023-02-05T18:01:57.711Z,103686.41
2023-02-05T18:04:27.394Z,103690.69
2023-02-05T18:06:57.617Z,103690.72
2023-02-05T18:09:28.319Z,103675.19
2023-02-05T18:11:57.544Z,103673.47
2023-02-05T18:14:26.607Z,103676.91
2023-02-05T18:16:55.674Z,103682.97
2023-02-05T18:19:24.722Z,103710.56
2023-02-05T18:21:53.743Z,103707.09
2023-02-05T18:24:22.856Z,103713.16
2023-02-05T18:26:53.485Z,103721.75
2023-02-05T18:29:22.616Z,103715.72
2023-02-05T18:31:51.708Z,103713.13
2023-02-05T18:34:20.768Z,103719.19
2023-02-05T18:36:50.183Z,103720.91
2023-02-05T18:39:19.532Z,103719.19
2023-02-05T18:41:48.660Z,103714.03
2023-02-05T18:44:19.448Z,103708.81
2023-02-05T18:46:48.650Z,103706.28
2023-02-05T18:49:17.833Z,103707.13
2023-02-05T18:51:46.847Z,103704.53
2023-02-05T18:54:16.054Z,103707.09
2023-02-05T18:56:45.396Z,103716.59
2023-02-05T18:59:18.323Z,103721.78
2023-02-05T19:01:48.947Z,103712.31
2023-02-05T19:04:19.513Z,103713.16
2023-02-05T19:06:53.588Z,103718.34
2023-02-05T19:09:24.508Z,103719.22
2023-02-05T19:11:55.241Z,103721.81
2023-02-05T19:14:25.828Z,103728.69
2023-02-05T19:16:56.631Z,103731.25
2023-02-05T19:19:27.266Z,103727.81
2023-02-05T19:22:00.044Z,103725.25
2023-02-05T19:24:29.966Z,103720.06
2023-02-05T19:26:59.944Z,103730.41
2023-02-05T19:29:29.781Z,103739.03
2023-02-05T19:32:00.253Z,103739.88
2023-02-05T19:34:29.497Z,103755.41
2023-02-05T19:36:58.643Z,103760.56
2023-02-05T19:39:28.049Z,103758.81
2023-02-05T19:41:57.132Z,103753.63
2023-02-05T19:44:27.295Z,103768.31
2023-02-05T19:46:56.538Z,103773.41
2023-02-05T19:49:27.203Z,103783.75
2023-02-05T19:51:59.412Z,103777.75
2023-02-05T19:54:29.452Z,103775.16
2023-02-05T19:56:58.660Z,103773.41
2023-02-05T19:59:28.070Z,103777.75
2023-02-05T20:01:57.384Z,103779.47
2023-02-05T20:04:28.622Z,103784.66
2023-02-05T20:06:59.944Z,103795.84
2023-02-05T20:09:31.796Z,103785.50
2023-02-05T20:12:01.050Z,103774.31
2023-02-05T20:14:30.586Z,103764.84
2023-02-05T20:16:59.657Z,103765.72
2023-02-05T20:19:32.415Z,103776.06
2023-02-05T20:22:01.530Z,103781.22
2023-02-05T20:24:30.627Z,103770.03
2023-02-05T20:26:59.793Z,103775.19
2023-02-05T20:29:46.415Z,103774.31
2023-02-05T20:32:15.443Z,103775.19
2023-02-05T20:34:50.173Z,103767.47
2023-02-05T20:37:19.810Z,103770.91
2023-02-05T20:39:49.591Z,103763.13
2023-02-05T20:42:18.986Z,103769.16
2023-02-05T20:44:48.697Z,103774.34
2023-02-05T20:47:17.851Z,103789.84
2023-02-05T20:49:48.379Z,103784.69
2023-02-05T20:52:17.596Z,103792.44
2023-02-05T20:54:46.676Z,103788.13
2023-02-05T20:57:15.957Z,103794.16
2023-02-05T20:59:45.245Z,103799.31
2023-02-05T21:02:15.528Z,103802.75
2023-02-05T21:04:44.865Z,103799.31
2023-02-05T21:07:17.829Z,103799.31
2023-02-05T21:09:46.857Z,103806.19
2023-02-05T21:12:15.961Z,103816.50
2023-02-05T21:14:45.092Z,103813.94
2023-02-05T21:17:14.680Z,103812.19
2023-02-05T21:19:43.848Z,103812.16
2023-02-05T21:22:14.226Z,103807.84
2023-02-05T21:24:43.286Z,103812.16
2023-02-05T21:27:12.313Z,103801.78
2023-02-05T21:29:41.651Z,103804.34
2023-02-05T21:32:11.048Z,103794.00
2023-02-05T21:34:40.735Z,103801.75
2023-02-05T21:37:12.429Z,103803.44
2023-02-05T21:39:44.186Z,103802.56
2023-02-05T21:42:13.531Z,103787.84
2023-02-05T21:44:44.107Z,103792.97
2023-02-05T21:47:13.155Z,103798.94
2023-02-05T21:49:42.306Z,103799.78
2023-02-05T21:52:11.445Z,103816.88
2023-02-05T21:54:41.807Z,103807.47
2023-02-05T21:57:10.852Z,103821.22
2023-02-05T21:59:39.883Z,103822.91
2023-02-05T22:02:10.893Z,103834.09
2023-02-05T22:04:40.090Z,103832.34
2023-02-05T22:07:09.153Z,103831.41
2023-02-05T22:09:38.198Z,103819.31
2023-02-05T22:12:08.981Z,103824.44
2023-02-05T22:14:38.038Z,103821.81
2023-02-05T22:17:07.161Z,103828.63
2023-02-05T22:19:36.242Z,103832.00
2023-02-05T22:22:05.285Z,103844.03
2023-02-05T22:24:34.723Z,103840.53
2023-02-05T22:27:03.951Z,103844.88
2023-02-05T22:29:34.565Z,103853.47
2023-02-05T22:32:03.602Z,103854.34
2023-02-05T22:34:32.667Z,103850.03
2023-02-05T22:37:01.696Z,103840.53
2023-02-05T22:39:30.746Z,103844.75
2023-02-05T22:42:01.313Z,103827.63
2023-02-05T22:44:30.352Z,103825.94
2023-02-05T22:47:00.722Z,103838.75
2023-02-05T22:49:29.767Z,103842.16
2023-02-05T22:51:58.836Z,103843.81
2023-02-05T22:54:27.925Z,103855.03
2023-02-05T22:56:56.976Z,103852.50
2023-02-05T22:59:26.864Z,103849.00
2023-02-05T23:01:55.891Z,103846.38
2023-02-05T23:04:26.310Z,103839.56
2023-02-05T23:06:55.359Z,103832.66
2023-02-05T23:09:24.351Z,103836.09
2023-02-05T23:11:56.387Z,103834.34
2023-02-05T23:14:25.482Z,103842.16
2023-02-05T23:16:56.526Z,103834.34
2023-02-05T23:19:26.997Z,103839.59
2023-02-05T23:21:56.036Z,103840.31
2023-02-05T23:24:25.130Z,103845.50
2023-02-05T23:26:54.615Z,103832.63
2023-02-05T23:29:23.656Z,103841.13
2023-02-05T23:31:52.679Z,103835.09
2023-02-05T23:34:21.727Z,103833.38
2023-02-05T23:36:52.159Z,103836.75
2023-02-05T23:39:21.192Z,103830.72
2023-02-05T23:41:50.283Z,103833.31
2023-02-05T23:44:20.721Z,103839.44
2023-02-05T23:46:50.972Z,103831.72
2023-02-05T23:49:21.925Z,103836.88
2023-02-05T23:51:53.789Z,103836.94
2023-02-05T23:54:24.058Z,103834.34
2023-02-05T23:56:55.636Z,103836.91
2023-02-05T23:59:24.732Z,103828.34
